Time,TemperatureF,DewpointF,PressureIn,WindDirection,WindDirectionDegrees,WindSpeedMPH,WindSpeedGustMPH,Humidity,HourlyPrecipIn,Conditions,Clouds,dailyrainin,SoftwareType,DateUTC
2013-04-14 00:08:00,51.3,34.0,30.00,East,83,0.0,0.0,51,0.00,,,0.00,weatherlink.com 1.10,2013-04-14 04:08:00,
2013-04-14 00:24:00,51.4,34.0,30.00,East,83,0.0,0.0,52,0.00,,,0.00,weatherlink.com 1.10,2013-04-14 04:24:00,
2013-04-14 00:39:00,51.5,34.0,30.00,East,83,0.0,0.0,51,0.00,,,0.00,weatherlink.com 1.10,2013-04-14 04:39:00,
2013-04-14 00:54:00,50.0,35.0,30.00,East,83,0.0,0.0,56,0.00,,,0.00,weatherlink.com 1.10,2013-04-14 04:54:00,
2013-04-14 01:09:00,49.2,34.0,30.00,East,83,0.0,0.0,56,0.00,,,0.00,weatherlink.com 1.10,2013-04-14 05:09:00,
2013-04-14 01:24:00,49.2,33.0,30.00,East,83,0.0,0.0,55,0.00,,,0.00,weatherlink.com 1.10,2013-04-14 05:24:00,
2013-04-14 01:39:00,50.6,34.0,30.00,East,83,0.0,0.0,54,0.00,,,0.00,weatherlink.com 1.10,2013-04-14 05:39:00,
2013-04-14 01:54:00,49.5,34.0,30.00,East,83,0.0,0.0,56,0.00,,,0.00,weatherlink.com 1.10,2013-04-14 05:54:00,
2013-04-14 02:09:00,49.6,34.0,29.99,East,84,0.0,0.0,56,0.00,,,0.00,weatherlink.com 1.10,2013-04-14 06:09:00,
2013-04-14 02:24:00,50.2,34.0,29.98,East,83,0.0,0.0,55,0.00,,,0.00,weatherlink.com 1.10,2013-04-14 06:24:00,
2013-04-14 02:39:00,49.5,34.0,29.98,East,83,0.0,0.0,56,0.00,,,0.00,weatherlink.com 1.10,2013-04-14 06:39:00,
2013-04-14 02:54:00,48.9,34.0,29.98,NE,56,0.0,1.0,58,0.00,,,0.00,weatherlink.com 1.10,2013-04-14 06:54:00,
2013-04-14 03:09:00,49.0,35.0,29.97,East,94,2.0,2.0,60,0.00,,,0.00,weatherlink.com 1.10,2013-04-14 07:09:00,
2013-04-14 03:34:00,47.3,36.0,29.96,SW,217,0.0,1.0,65,0.00,,,0.00,weatherlink.com 1.10,2013-04-14 07:34:00,
2013-04-14 03:39:00,47.0,36.0,29.97,SSE,167,0.0,2.0,66,0.00,,,0.00,weatherlink.com 1.10,2013-04-14 07:39:00,
2013-04-14 03:54:00,46.8,36.0,29.97,SSW,194,0.0,1.0,66,0.00,,,0.00,weatherlink.com 1.10,2013-04-14 07:54:00,
2013-04-14 04:09:00,47.2,35.0,29.96,East,91,0.0,1.0,64,0.00,,,0.00,weatherlink.com 1.10,2013-04-14 08:09:00,
2013-04-14 04:24:00,47.6,35.0,29.97,East,91,0.0,0.0,62,0.00,,,0.00,weatherlink.com 1.10,2013-04-14 08:24:00,
2013-04-14 04:39:00,48.5,35.0,29.96,East,91,0.0,0.0,60,0.00,,,0.00,weatherlink.com 1.10,2013-04-14 08:39:00,
2013-04-14 04:54:00,48.6,36.0,29.97,East,101,0.0,2.0,61,0.00,,,0.00,weatherlink.com 1.10,2013-04-14 08:54:00,
2013-04-14 05:09:00,47.4,36.0,29.96,ENE,75,1.0,1.0,64,0.00,,,0.00,weatherlink.com 1.10,2013-04-14 09:09:00,
2013-04-14 05:24:00,46.7,36.0,29.95,NE,44,1.0,2.0,66,0.00,,,0.00,weatherlink.com 1.10,2013-04-14 09:24:00,
2013-04-14 05:40:00,46.3,36.0,29.96,NNW,335,0.0,2.0,68,0.00,,,0.00,weatherlink.com 1.10,2013-04-14 09:40:00,
2013-04-14 05:55:00,45.6,36.0,29.95,North,11,1.0,3.0,69,0.00,,,0.00,weatherlink.com 1.10,2013-04-14 09:55:00,
2013-04-14 06:10:00,45.6,36.0,29.96,ENE,78,2.0,3.0,69,0.00,,,0.00,weatherlink.com 1.10,2013-04-14 10:10:00,
2013-04-14 06:26:00,46.6,36.0,29.97,ENE,78,0.0,1.0,66,0.00,,,0.00,weatherlink.com 1.10,2013-04-14 10:26:00,
2013-04-14 06:40:00,47.2,35.0,29.98,ENE,64,0.0,1.0,62,0.00,,,0.00,weatherlink.com 1.10,2013-04-14 10:40:00,
2013-04-14 06:55:00,47.2,35.0,29.98,ENE,64,0.0,0.0,63,0.00,,,0.00,weatherlink.com 1.10,2013-04-14 10:55:00,
2013-04-14 07:10:00,47.4,35.0,29.98,ENE,65,0.0,0.0,63,0.00,,,0.00,weatherlink.com 1.10,2013-04-14 11:10:00,
2013-04-14 07:25:00,47.9,36.0,29.99,NE,46,0.0,1.0,63,0.00,,,0.00,weatherlink.com 1.10,2013-04-14 11:25:00,
2013-04-14 07:40:00,47.3,36.0,29.99,East,82,0.0,2.0,65,0.00,,,0.00,weatherlink.com 1.10,2013-04-14 11:40:00,
2013-04-14 07:55:00,47.2,36.0,29.99,East,80,0.0,1.0,66,0.00,,,0.00,weatherlink.com 1.10,2013-04-14 11:55:00,
2013-04-14 08:10:00,48.9,36.0,29.99,East,97,0.0,1.0,62,0.00,,,0.00,weatherlink.com 1.10,2013-04-14 12:10:00,
2013-04-14 08:25:00,51.3,38.0,29.99,South,191,0.0,1.0,60,0.00,,,0.00,weatherlink.com 1.10,2013-04-14 12:25:00,
2013-04-14 08:40:00,52.4,39.0,29.99,ENE,76,0.0,0.0,61,0.00,,,0.00,weatherlink.com 1.10,2013-04-14 12:40:00,
2013-04-14 08:55:00,52.7,39.0,29.98,East,81,1.0,2.0,59,0.00,,,0.00,weatherlink.com 1.10,2013-04-14 12:55:00,
2013-04-14 09:10:00,54.6,38.0,29.99,South,170,0.0,2.0,54,0.00,,,0.00,weatherlink.com 1.10,2013-04-14 13:10:00,
2013-04-14 09:25:00,57.2,39.0,29.98,East,82,1.0,2.0,52,0.00,,,0.00,weatherlink.com 1.10,2013-04-14 13:25:00,
2013-04-14 09:40:00,58.6,40.0,29.98,ENE,60,1.0,2.0,50,0.00,,,0.00,weatherlink.com 1.10,2013-04-14 13:40:00,
2013-04-14 09:55:00,59.3,40.0,29.98,ENE,60,0.0,2.0,49,0.00,,,0.00,weatherlink.com 1.10,2013-04-14 13:55:00,
2013-04-14 10:10:00,61.0,39.0,29.98,East,80,1.0,2.0,45,0.00,,,0.00,weatherlink.com 1.10,2013-04-14 14:10:00,
2013-04-14 10:25:00,63.0,40.0,29.97,ENE,64,1.0,2.0,43,0.00,,,0.00,weatherlink.com 1.10,2013-04-14 14:25:00,
2013-04-14 10:40:00,63.3,41.0,29.96,North,350,0.0,3.0,44,0.00,,,0.00,weatherlink.com 1.10,2013-04-14 14:40:00,
2013-04-14 10:55:00,63.9,41.0,29.97,South,177,0.0,2.0,43,0.00,,,0.00,weatherlink.com 1.10,2013-04-14 14:55:00,
2013-04-14 11:10:00,65.2,40.0,29.97,East,101,0.0,3.0,40,0.00,,,0.00,weatherlink.com 1.10,2013-04-14 15:10:00,
2013-04-14 11:25:00,66.8,37.0,29.97,South,170,2.0,5.0,34,0.00,,,0.00,weatherlink.com 1.10,2013-04-14 15:25:00,
2013-04-14 11:40:00,67.0,38.0,29.98,SSE,150,2.0,5.0,34,0.00,,,0.00,weatherlink.com 1.10,2013-04-14 15:40:00,
2013-04-14 11:55:00,66.8,38.0,29.98,ESE,121,2.0,3.0,35,0.00,,,0.00,weatherlink.com 1.10,2013-04-14 15:55:00,
2013-04-14 12:10:00,65.8,38.0,29.98,NE,43,0.0,10.0,36,0.00,,,0.00,weatherlink.com 1.10,2013-04-14 16:10:00,
2013-04-14 12:25:00,65.0,39.0,29.98,East,86,2.0,3.0,38,0.00,,,0.00,weatherlink.com 1.10,2013-04-14 16:25:00,
2013-04-14 12:40:00,63.8,38.0,29.98,SSE,163,2.0,8.0,39,0.00,,,0.00,weatherlink.com 1.10,2013-04-14 16:40:00,
2013-04-14 12:55:00,63.1,39.0,29.98,East,98,2.0,4.0,41,0.00,,,0.00,weatherlink.com 1.10,2013-04-14 16:55:00,
2013-04-14 13:10:00,62.9,39.0,29.98,SE,129,2.0,7.0,42,0.00,,,0.00,weatherlink.com 1.10,2013-04-14 17:10:00,
2013-04-14 13:25:00,62.7,40.0,29.97,SSW,208,1.0,5.0,43,0.00,,,0.00,weatherlink.com 1.10,2013-04-14 17:25:00,
2013-04-14 13:40:00,62.9,40.0,29.97,ESE,122,2.0,3.0,43,0.00,,,0.00,weatherlink.com 1.10,2013-04-14 17:40:00,
2013-04-14 13:55:00,62.9,40.0,29.97,SE,134,1.0,3.0,43,0.00,,,0.00,weatherlink.com 1.10,2013-04-14 17:55:00,
2013-04-14 14:10:00,62.4,41.0,29.97,South,172,2.0,6.0,46,0.00,,,0.00,weatherlink.com 1.10,2013-04-14 18:10:00,
2013-04-14 14:25:00,61.8,42.0,29.98,East,100,2.0,3.0,48,0.00,,,0.00,weatherlink.com 1.10,2013-04-14 18:25:00,
2013-04-14 14:40:00,61.6,43.0,29.98,ESE,115,3.0,4.0,50,0.00,,,0.00,weatherlink.com 1.10,2013-04-14 18:40:00,
2013-04-14 14:55:00,61.3,44.0,29.98,East,98,2.0,6.0,53,0.00,,,0.00,weatherlink.com 1.10,2013-04-14 18:55:00,
2013-04-14 15:11:00,60.8,45.0,29.97,SSE,153,1.0,5.0,57,0.00,,,0.00,weatherlink.com 1.10,2013-04-14 19:11:00,
2013-04-14 15:26:00,60.1,46.0,29.97,ESE,115,1.0,4.0,60,0.00,,,0.00,weatherlink.com 1.10,2013-04-14 19:26:00,
2013-04-14 15:41:00,59.8,46.0,29.97,SSW,210,2.0,3.0,61,0.00,,,0.00,weatherlink.com 1.10,2013-04-14 19:41:00,
2013-04-14 15:56:00,59.0,48.0,29.96,SE,133,1.0,2.0,67,0.00,,,0.00,weatherlink.com 1.10,2013-04-14 19:56:00,
2013-04-14 16:11:00,57.9,49.0,29.96,SE,134,1.0,2.0,73,0.00,,,0.00,weatherlink.com 1.10,2013-04-14 20:11:00,
2013-04-14 16:26:00,56.7,50.0,29.95,South,184,0.0,3.0,77,0.00,,,0.00,weatherlink.com 1.10,2013-04-14 20:26:00,
2013-04-14 16:41:00,55.4,50.0,29.94,SSE,148,0.0,4.0,81,0.01,,,0.01,weatherlink.com 1.10,2013-04-14 20:41:00,
2013-04-14 17:26:00,55.3,48.0,29.90,ESE,102,2.0,6.0,76,0.01,,,0.01,weatherlink.com 1.10,2013-04-14 21:26:00,
2013-04-14 17:56:00,55.4,48.0,29.89,East,100,2.0,7.0,75,0.00,,,0.01,weatherlink.com 1.10,2013-04-14 21:56:00,
2013-04-14 18:11:00,55.6,47.0,29.89,SE,136,1.0,9.0,73,0.00,,,0.01,weatherlink.com 1.10,2013-04-14 22:11:00,
2013-04-14 18:41:00,55.5,47.0,29.88,ESE,115,4.0,7.0,73,0.00,,,0.01,weatherlink.com 1.10,2013-04-14 22:41:00,
2013-04-14 18:56:00,55.4,46.0,29.88,South,172,2.0,8.0,72,0.00,,,0.01,weatherlink.com 1.10,2013-04-14 22:56:00,
2013-04-14 19:11:00,55.0,47.0,29.87,East,90,2.0,7.0,74,0.00,,,0.01,weatherlink.com 1.10,2013-04-14 23:11:00,
2013-04-14 19:26:00,54.8,47.0,29.87,East,89,1.0,5.0,75,0.00,,,0.01,weatherlink.com 1.10,2013-04-14 23:26:00,
2013-04-14 20:11:00,55.0,46.0,29.89,ESE,104,2.0,3.0,71,0.00,,,0.01,weatherlink.com 1.10,2013-04-15 00:11:00,
2013-04-14 20:26:00,55.2,46.0,29.89,East,101,1.0,5.0,70,0.00,,,0.01,weatherlink.com 1.10,2013-04-15 00:26:00,
2013-04-14 20:41:00,54.6,46.0,29.89,ESE,118,2.0,5.0,73,0.00,,,0.01,weatherlink.com 1.10,2013-04-15 00:41:00,
2013-04-14 21:26:00,51.8,48.0,29.91,SE,138,0.0,2.0,86,0.01,,,0.02,weatherlink.com 1.10,2013-04-15 01:26:00,
2013-04-14 22:11:00,52.4,48.0,29.91,ENE,58,0.0,1.0,85,0.00,,,0.02,weatherlink.com 1.10,2013-04-15 02:11:00,
2013-04-14 22:26:00,52.7,48.0,29.90,NE,55,0.0,1.0,85,0.00,,,0.02,weatherlink.com 1.10,2013-04-15 02:26:00,
2013-04-14 22:41:00,52.5,49.0,29.89,East,98,1.0,2.0,86,0.00,,,0.02,weatherlink.com 1.10,2013-04-15 02:41:00,
2013-04-14 22:56:00,52.5,49.0,29.89,East,91,0.0,2.0,87,0.00,,,0.02,weatherlink.com 1.10,2013-04-15 02:56:00,
2013-04-14 23:11:00,53.0,49.0,29.89,ENE,76,2.0,4.0,86,0.00,,,0.02,weatherlink.com 1.10,2013-04-15 03:11:00,
2013-04-14 23:26:00,52.6,49.0,29.89,North,10,2.0,3.0,87,0.00,,,0.02,weatherlink.com 1.10,2013-04-15 03:26:00,
2013-04-14 23:41:00,52.4,49.0,29.89,East,90,0.0,1.0,88,0.00,,,0.02,weatherlink.com 1.10,2013-04-15 03:41:00,